Date,TemperatureHighF,TemperatureAvgF,TemperatureLowF,DewpointHighF,DewpointAvgF,DewpointLowF,HumidityHigh,HumidityAvg,HumidityLow,PressureMaxIn,PressureMinIn,WindSpeedMaxMPH,WindSpeedAvgMPH,GustSpeedMaxMPH,PrecipitationSumIn
2013-1-1,36.0,27.0,19.0,-99.9,-99.9,-99.9,0,0,100,0.00,40.00,10,2,10,0.00
2013-1-2,42.0,30.9,25.0,-99.9,-99.9,-99.9,0,0,100,0.00,40.00,10,5,10,0.00
2013-1-3,31.0,25.9,15.0,-99.9,-99.9,-99.9,0,0,100,0.00,40.00,19,8,19,0.00
2013-1-4,40.0,30.6,25.0,-99.9,-99.9,-99.9,0,0,100,0.00,40.00,19,6,19,0.00
2013-1-5,32.0,27.6,24.0,-99.9,-99.9,-99.9,0,0,100,0.00,40.00,12,5,12,0.00
2013-1-6,39.0,29.5,25.0,-99.9,-99.9,-99.9,0,0,100,0.00,40.00,24,-3,24,0.00
2013-1-7,36.0,31.9,27.0,-99.9,-99.9,-99.9,0,0,100,0.00,40.00,28,14,28,0.01
2013-1-8,36.0,33.7,30.0,-99.9,-99.9,-99.9,0,0,100,0.00,40.00,27,10,27,0.00
2013-1-9,37.0,27.5,17.0,-99.9,-99.9,-99.9,0,0,100,0.00,40.00,28,10,28,0.00
2013-1-10,24.0,18.0,16.0,-99.9,-99.9,-99.9,0,0,100,0.00,40.00,17,6,17,0.00
2013-1-11,21.0,14.7,10.0,-99.9,-99.9,-99.9,0,0,100,0.00,40.00,12,4,12,0.00
2013-1-12,28.0,16.4,10.0,-99.9,-99.9,-99.9,0,0,100,0.00,40.00,8,2,8,0.00
2013-1-13,23.0,15.7,12.0,-99.9,-99.9,-99.9,0,0,100,0.00,40.00,8,2,8,0.00
2013-1-14,45.0,29.1,15.0,-99.9,-99.9,-99.9,0,0,100,0.00,40.00,6,2,6,0.00
2013-1-15,53.0,44.6,33.0,-99.9,-99.9,-99.9,0,0,100,0.00,40.00,16,5,16,0.00
2013-1-16,54.0,46.3,40.0,-99.9,-99.9,-99.9,0,0,100,0.00,40.00,12,3,12,0.00
2013-1-17,58.0,45.2,40.0,-99.9,-99.9,-99.9,0,0,100,0.00,40.00,10,4,10,0.00
2013-1-18,60.0,47.2,39.0,-99.9,-99.9,-99.9,0,0,100,0.00,40.00,10,4,10,0.00
2013-1-19,56.0,46.0,40.0,-99.9,-99.9,-99.9,0,0,100,0.00,40.00,8,3,8,0.00
2013-1-20,54.0,42.9,37.0,-99.9,-99.9,-99.9,0,0,100,0.00,40.00,12,4,12,0.00
2013-1-21,58.0,41.3,32.0,-99.9,-99.9,-99.9,0,0,100,0.00,40.00,12,6,12,0.00
2013-1-22,52.0,40.1,33.0,-99.9,-99.9,-99.9,0,0,100,0.00,40.00,17,5,17,0.00
2013-1-23,38.0,34.9,32.0,-99.9,-99.9,-99.9,0,0,100,0.00,40.00,19,9,19,0.00
2013-1-24,44.0,35.4,31.0,-99.9,-99.9,-99.9,0,0,100,0.00,40.00,16,6,16,0.00
2013-1-25,36.0,34.5,31.0,-99.9,-99.9,-99.9,0,0,100,0.00,40.00,12,5,12,0.02
2013-1-26,32.0,26.6,23.0,-99.9,-99.9,-99.9,0,0,100,0.00,40.00,0,0,0,0.00
2013-1-28,27.0,24.9,23.0,-99.9,-99.9,-99.9,0,0,100,0.00,40.00,37,6,37,0.00
2013-1-29,42.0,32.4,25.0,-99.9,-99.9,-99.9,0,0,100,0.00,40.00,37,14,37,0.00
2013-1-30,40.0,36.6,31.0,-99.9,-99.9,-99.9,0,0,100,0.00,40.00,16,6,16,0.00
2013-1-31,46.0,36.4,28.0,-99.9,-99.9,-99.9,0,0,100,0.00,40.00,6,1,6,0.00
2013-2-1,50.0,36.8,29.0,-99.9,-99.9,-99.9,0,0,100,0.00,40.00,5,0,5,0.00
2013-2-2,50.0,38.8,33.0,-99.9,-99.9,-99.9,0,0,100,0.00,40.00,12,4,12,0.00
2013-2-3,48.0,40.3,35.0,-99.9,-99.9,-99.9,0,0,100,0.00,40.00,23,7,23,0.00
2013-2-4,49.0,40.7,36.0,-99.9,-99.9,-99.9,0,0,100,0.00,40.00,17,5,17,0.00
2013-2-5,37.0,31.7,26.0,-99.9,-99.9,-99.9,0,0,100,0.00,40.00,29,10,29,0.00
2013-2-6,41.0,29.9,25.0,-99.9,-99.9,-99.9,0,0,100,0.00,40.00,17,5,17,0.00
2013-2-7,33.0,25.1,19.0,-99.9,-99.9,-99.9,0,0,100,0.00,40.00,8,-14,8,0.00
2013-2-8,29.0,22.7,17.0,-99.9,-99.9,-99.9,0,0,100,0.00,40.00,8,0,8,0.00
2013-2-9,39.0,28.7,18.0,-99.9,-99.9,-99.9,0,0,100,0.00,40.00,2,0,2,0.00
2013-2-10,37.0,29.1,22.0,-99.9,-99.9,-99.9,0,0,100,0.00,40.00,11,0,11,0.00
2013-2-11,43.0,35.9,28.0,-99.9,-99.9,-99.9,0,0,100,0.00,40.00,12,0,12,0.00
2013-2-12,44.0,33.8,28.0,-99.9,-99.9,-99.9,0,0,100,0.00,40.00,0,0,0,0.00
2013-2-13,43.0,35.2,30.0,-99.9,-99.9,-99.9,0,0,100,0.00,40.00,19,1,19,0.00
2013-2-14,50.0,35.8,27.0,-99.9,-99.9,-99.9,0,0,100,0.00,40.00,8,0,8,0.00
2013-2-15,55.0,40.6,33.0,-99.9,-99.9,-99.9,0,0,100,0.00,40.00,1,0,1,0.00
2013-2-16,38.0,37.4,36.0,-99.9,-99.9,-99.9,0,0,100,0.00,40.00,0,0,0,0.00
2013-2-19,35.0,25.5,20.0,-99.9,-99.9,-99.9,0,0,100,0.00,40.00,8,0,8,0.00
2013-2-20,39.0,24.9,17.0,-99.9,-99.9,-99.9,0,0,100,0.00,40.00,14,0,14,0.00
2013-2-21,31.0,23.6,19.0,-99.9,-99.9,-99.9,0,0,100,0.00,40.00,20,2,20,0.00
2013-2-22,35.0,26.6,20.0,-99.9,-99.9,-99.9,0,0,100,0.00,40.00,27,9,27,0.00
2013-2-23,26.0,20.6,17.0,-99.9,-99.9,-99.9,0,0,100,0.00,40.00,25,5,25,0.00
2013-2-24,44.0,28.1,16.0,-99.9,-99.9,-99.9,0,0,100,0.00,40.00,16,1,16,0.00
2013-2-25,30.0,24.0,19.0,-99.9,-99.9,-99.9,0,0,100,0.00,40.00,35,10,35,0.00
2013-2-26,43.0,27.3,17.0,-99.9,-99.9,-99.9,0,0,100,0.00,40.00,5,0,5,0.00
2013-2-27,37.0,31.1,26.0,-99.9,-99.9,-99.9,0,0,100,0.00,40.00,16,1,16,0.00
2013-2-28,43.0,35.1,30.0,-99.9,-99.9,-99.9,0,0,100,0.00,40.00,23,2,23,0.02
2013-3-1,58.0,41.7,32.0,-99.9,-99.9,-99.9,0,0,100,0.00,40.00,11,0,11,0.00
2013-3-2,50.0,42.1,33.0,-99.9,-99.9,-99.9,0,0,100,0.00,40.00,10,0,10,0.00
2013-3-3,34.0,28.1,19.0,-99.9,-99.9,-99.9,0,0,100,0.00,40.00,6,0,6,0.00
2013-3-4,49.0,30.8,18.0,-99.9,-99.9,-99.9,0,0,100,0.00,40.00,5,0,5,0.00
2013-3-5,41.0,32.3,29.0,-99.9,-99.9,-99.9,0,0,100,0.00,40.00,8,0,8,0.00
2013-3-6,31.0,27.5,23.0,-99.9,-99.9,-99.9,0,0,100,0.00,40.00,24,4,24,0.00
2013-3-7,35.0,28.5,19.0,-99.9,-99.9,-99.9,0,0,100,0.00,40.00,0,0,0,0.00
2013-3-8,32.0,26.6,23.0,-99.9,-99.9,-99.9,0,0,100,0.00,40.00,10,0,10,0.00
2013-3-9,49.0,34.4,24.0,-99.9,-99.9,-99.9,0,0,100,0.00,40.00,6,0,6,0.01
2013-3-11,48.0,42.3,36.0,-99.9,-99.9,-99.9,0,0,100,0.00,40.00,11,0,11,0.00
2013-3-12,56.0,43.7,33.0,-99.9,-99.9,-99.9,0,0,100,0.00,40.00,24,4,24,0.00
2013-3-13,63.0,47.7,39.0,-99.9,-99.9,-99.9,0,0,100,0.00,40.00,12,0,12,0.00
2013-3-14,57.0,45.0,38.0,-99.9,-99.9,-99.9,0,0,100,0.00,40.00,20,4,20,0.00
2013-3-15,52.0,41.3,35.0,-99.9,-99.9,-99.9,0,0,100,0.00,40.00,15,2,15,0.00
2013-3-16,39.0,32.1,25.0,-99.9,-99.9,-99.9,0,0,100,0.00,40.00,42,5,42,0.00
2013-3-17,35.0,24.8,17.0,-99.9,-99.9,-99.9,0,0,100,0.00,40.00,42,4,42,0.00
2013-3-18,48.0,31.6,21.0,-99.9,-99.9,-99.9,0,0,100,0.00,40.00,6,0,6,0.00
2013-3-19,48.0,37.2,31.0,-99.9,-99.9,-99.9,0,0,100,0.00,40.00,12,1,12,0.02
2013-3-20,36.0,30.6,21.0,-99.9,-99.9,-99.9,0,0,100,0.00,40.00,33,7,33,0.02
2013-3-21,28.0,21.2,17.0,-99.9,-99.9,-99.9,0,0,100,0.00,40.00,25,5,25,0.00
2013-3-22,29.0,20.6,17.0,-99.9,-99.9,-99.9,0,0,100,0.00,40.00,17,2,17,0.00
2013-3-23,41.0,25.5,15.0,-99.9,-99.9,-99.9,0,0,100,0.00,40.00,1,0,1,0.00
2013-3-24,46.0,32.0,22.0,-99.9,-99.9,-99.9,0,0,100,0.00,40.00,0,0,0,0.00
2013-3-25,54.0,37.8,30.0,-99.9,-99.9,-99.9,0,0,100,0.00,40.00,0,0,0,0.00
2013-3-26,49.0,36.3,31.0,-99.9,-99.9,-99.9,0,0,100,0.00,40.00,0,0,0,0.00
2013-3-27,51.0,37.2,30.0,-99.9,-99.9,-99.9,0,0,100,0.00,40.00,4,0,4,0.00
2013-3-28,56.0,40.9,34.0,-99.9,-99.9,-99.9,0,0,100,0.00,40.00,0,0,0,0.00
2013-3-29,57.0,42.3,32.0,-99.9,-99.9,-99.9,0,0,100,0.00,40.00,0,0,0,0.00
2013-4-1,57.0,46.0,39.0,-99.9,-99.9,-99.9,0,0,100,0.00,40.00,3,0,3,0.00
2013-4-2,60.0,43.9,34.0,-99.9,-99.9,-99.9,0,0,100,0.00,40.00,5,0,5,0.00
2013-4-3,64.0,47.9,35.0,-99.9,-99.9,-99.9,0,0,100,0.00,40.00,0,0,0,0.00
2013-4-4,49.0,42.1,34.0,-99.9,-99.9,-99.9,0,0,100,0.00,40.00,12,1,12,0.01
2013-4-5,44.0,35.1,33.0,-99.9,-99.9,-99.9,0,0,100,0.00,40.00,15,-6,15,0.01
2013-4-6,43.0,33.7,31.0,-99.9,-99.9,-99.9,0,0,100,0.00,40.00,28,5,28,0.00
2013-4-7,33.0,28.8,23.0,-99.9,-99.9,-99.9,0,0,100,0.00,40.00,28,7,28,0.00
2013-4-8,36.0,28.1,21.0,-99.9,-99.9,-99.9,0,0,100,0.00,40.00,8,0,8,0.00
2013-4-9,50.0,37.3,24.0,-99.9,-99.9,-99.9,0,0,100,0.00,40.00,3,0,3,0.00
2013-4-10,44.0,39.5,30.0,-99.9,-99.9,-99.9,0,0,100,0.00,40.00,26,-3,26,0.01
2013-4-11,51.0,35.8,27.0,-99.9,-99.9,-99.9,0,0,100,0.00,40.00,3,-7,3,0.00
2013-4-12,54.0,38.8,29.0,-99.9,-99.9,-99.9,0,0,100,0.00,40.00,32,5,32,0.00
2013-4-13,37.0,28.5,22.0,-99.9,-99.9,-99.9,0,0,100,0.00,40.00,48,8,48,0.00
2013-4-14,37.0,25.8,20.0,-99.9,-99.9,-99.9,0,0,100,0.00,40.00,9,-14,9,0.00
2013-4-15,30.0,25.5,22.0,-99.9,-99.9,-99.9,0,0,100,0.00,40.00,12,1,12,0.00
2013-4-16,30.0,25.0,23.0,-99.9,-99.9,-99.9,0,0,100,0.00,40.00,10,1,10,0.00
2013-4-17,43.0,29.4,20.0,-99.9,-99.9,-99.9,0,0,100,0.00,40.00,8,0,8,0.00
2013-4-18,58.0,40.6,29.0,-99.9,-99.9,-99.9,0,0,100,0.00,40.00,7,0,7,0.00
2013-4-19,41.0,37.4,34.0,-99.9,-99.9,-99.9,0,0,100,0.00,40.00,32,7,32,0.02
2013-4-22,40.0,33.8,29.0,-99.9,-99.9,-99.9,0,0,100,0.00,40.00,12,7,12,0.00
2013-4-23,60.0,39.0,27.0,-99.9,-99.9,-99.9,0,0,100,0.00,40.00,12,2,12,0.00
2013-4-24,62.0,43.5,29.0,-99.9,-99.9,-99.9,0,0,100,0.00,40.00,10,1,10,0.00
2013-4-25,63.0,52.4,42.0,-99.9,-99.9,-99.9,0,0,100,0.00,40.00,12,0,12,0.00
2013-4-26,70.0,56.0,43.0,-99.9,-99.9,-99.9,0,0,100,0.00,40.00,4,0,4,0.00
2013-4-27,65.0,53.1,41.0,-99.9,-99.9,-99.9,0,0,100,0.00,40.00,17,2,17,0.00
2013-4-28,56.0,44.5,35.0,-99.9,-99.9,-99.9,0,0,100,0.00,40.00,14,2,14,0.00
2013-4-29,43.0,38.4,29.0,-99.9,-99.9,-99.9,0,0,100,0.00,40.00,19,6,19,0.01
2013-4-30,43.0,33.1,21.0,-99.9,-99.9,-99.9,0,0,100,0.00,40.00,10,1,10,0.00
2013-5-1,50.0,37.1,23.0,-99.9,-99.9,-99.9,0,0,100,0.00,40.00,11,0,11,0.00
2013-5-2,67.0,50.6,39.0,-99.9,-99.9,-99.9,0,0,100,0.00,40.00,0,0,0,0.00
2013-5-3,59.0,51.0,45.0,-99.9,-99.9,-99.9,0,0,100,0.00,40.00,11,2,11,0.00
2013-5-4,54.0,47.4,42.0,-99.9,-99.9,-99.9,0,0,100,0.00,40.00,29,11,29,0.00
2013-5-5,59.0,49.3,41.0,-99.9,-99.9,-99.9,0,0,100,0.00,40.00,20,8,20,0.00
2013-5-6,65.0,55.5,48.0,-99.9,-99.9,-99.9,0,0,100,0.00,40.00,17,3,17,0.00
2013-5-7,65.0,55.1,48.0,-99.9,-99.9,-99.9,0,0,100,0.00,40.00,11,1,11,0.00
2013-5-8,68.0,56.7,47.0,-99.9,-99.9,-99.9,0,0,100,0.00,40.00,16,1,16,0.00
2013-5-9,75.0,58.8,44.0,-99.9,-99.9,-99.9,0,0,100,0.00,40.00,10,1,10,0.00
2013-5-10,80.0,63.5,53.0,-99.9,-99.9,-99.9,0,0,100,0.00,40.00,9,0,9,0.00
2013-5-11,80.0,65.7,55.0,-99.9,-99.9,-99.9,0,0,100,0.00,40.00,12,1,12,0.00
2013-5-12,74.0,61.8,53.0,-99.9,-99.9,-99.9,0,0,100,0.00,40.00,19,3,19,0.00
2013-5-13,56.0,49.3,38.0,-99.9,-99.9,-99.9,0,0,100,0.00,40.00,23,6,23,0.00
2013-5-14,64.0,47.8,33.0,-99.9,-99.9,-99.9,0,0,100,0.00,40.00,17,1,17,0.00
2013-5-15,57.0,44.2,38.0,-99.9,-99.9,-99.9,0,0,100,0.00,40.00,12,0,12,0.00
2013-5-16,53.0,41.0,36.0,-99.9,-99.9,-99.9,0,0,100,0.00,40.00,0,0,0,0.00
2013-5-17,55.0,41.6,34.0,-99.9,-99.9,-99.9,0,0,100,0.00,40.00,1,0,1,0.00
2013-5-18,50.0,39.6,30.0,-99.9,-99.9,-99.9,0,0,100,0.00,40.00,0,0,0,0.00
2013-5-19,54.0,43.4,32.0,-99.9,-99.9,-99.9,0,0,100,0.00,40.00,0,0,0,0.00
2013-5-20,73.0,52.9,36.0,-99.9,-99.9,-99.9,0,0,100,0.00,40.00,0,0,0,0.00
2013-5-21,46.0,36.3,23.0,-99.9,-99.9,-99.9,0,0,100,0.00,40.00,2,0,2,0.00
2013-5-22,35.0,27.9,22.0,-99.9,-99.9,-99.9,0,0,100,0.00,40.00,0,0,0,0.00
2013-5-23,50.0,36.6,24.0,-99.9,-99.9,-99.9,0,0,100,0.00,40.00,0,0,0,0.00
2013-5-24,50.0,37.7,31.0,-99.9,-99.9,-99.9,0,0,100,0.00,40.00,0,0,0,0.00
2013-5-25,57.0,43.6,30.0,-99.9,-99.9,-99.9,0,0,100,0.00,40.00,0,0,0,0.00
2013-5-26,50.0,41.7,36.0,-99.9,-99.9,-99.9,0,0,100,0.00,40.00,0,0,0,0.01
2013-5-27,47.0,38.9,35.0,-99.9,-99.9,-99.9,0,0,100,0.00,40.00,0,0,0,0.03
2013-5-28,55.0,43.3,36.0,-99.9,-99.9,-99.9,0,0,100,0.00,40.00,14,1,14,0.00
2013-5-29,44.0,39.2,34.0,-99.9,-99.9,-99.9,0,0,100,0.00,40.00,30,5,30,0.02
2013-5-30,58.0,43.2,29.0,-99.9,-99.9,-99.9,0,0,100,0.00,40.00,17,2,17,0.00
2013-5-31,69.0,49.5,31.0,-99.9,-99.9,-99.9,0,0,100,0.00,40.00,0,0,0,0.00
2013-6-1,70.0,56.7,42.0,-99.9,-99.9,-99.9,0,0,100,0.00,40.00,12,0,12,0.00
2013-6-2,62.0,50.9,40.0,-99.9,-99.9,-99.9,0,0,100,0.00,40.00,0,0,0,0.00
2013-6-3,66.0,54.3,36.0,-99.9,-99.9,-99.9,0,0,100,0.00,40.00,0,0,0,0.00
2013-6-4,69.0,59.1,46.0,-99.9,-99.9,-99.9,0,0,100,0.00,40.00,0,0,0,0.00
2013-6-5,75.0,64.1,52.0,44.0,6.9,-99.9,59,27,22,0.00,40.00,11,4,16,0.00
2013-6-6,76.0,64.3,54.0,49.0,40.2,-99.9,74,48,20,0.00,40.00,11,3,19,0.00
2013-6-7,74.0,62.1,53.0,48.0,0.9,-99.9,78,37,37,0.00,40.00,14,4,21,0.00
2013-6-8,84.0,66.0,48.0,-99.9,-99.9,-99.9,0,0,100,0.00,40.00,12,1,12,0.00
2013-6-9,81.0,66.4,50.0,-99.9,-99.9,-99.9,0,0,100,0.00,40.00,12,1,12,0.00
2013-6-10,76.0,59.9,43.0,-99.9,-99.9,-99.9,0,0,100,0.00,40.00,10,-7,10,0.00
2013-6-11,54.0,45.4,36.0,30.0,-28.1,-99.9,77,25,27,0.00,40.00,12,-10,20,0.00
2013-6-12,53.0,40.3,30.0,33.0,28.4,23.0,90,64,30,0.00,40.00,12,4,19,0.00
2013-6-13,45.0,38.2,33.0,32.0,29.5,25.0,82,71,57,0.00,40.00,17,7,30,0.00
2013-6-14,60.0,46.6,33.0,31.0,26.9,21.0,89,50,26,0.00,40.00,11,4,15,0.00
2013-6-15,69.0,58.5,46.0,43.0,30.6,20.0,53,37,17,0.00,40.00,10,4,20,0.00
2013-6-16,69.0,56.7,47.0,43.0,37.3,32.0,76,49,30,0.00,40.00,14,5,21,0.00
2013-6-17,63.0,52.0,41.0,42.0,38.9,35.0,97,63,38,0.00,40.00,16,6,26,0.00
2013-6-18,53.0,44.2,38.0,39.0,34.6,30.0,89,70,44,0.00,40.00,12,5,22,0.00
2013-6-19,45.0,38.7,34.0,36.0,31.0,29.0,88,74,55,0.00,40.00,17,8,37,0.00
2013-6-20,50.0,37.0,30.0,33.0,28.6,26.0,91,72,48,0.00,40.00,15,5,26,0.00
2013-6-21,47.0,46.0,45.0,38.0,36.2,35.0,75,68,64,0.00,40.00,7,5,11,0.00
2013-6-22,67.0,56.5,39.0,43.0,38.5,35.0,89,52,35,0.00,40.00,9,4,17,0.00
2013-6-23,54.0,49.4,46.0,49.0,44.4,40.0,97,83,60,0.00,40.00,13,4,21,0.00
2013-6-24,49.0,44.2,40.0,45.0,40.8,36.0,99,88,75,0.00,40.00,16,7,26,0.00
2013-6-25,50.0,44.8,42.0,46.0,43.3,41.0,101,95,76,0.00,40.00,15,10,26,0.00
2013-6-26,57.0,49.4,43.0,51.0,46.6,42.0,101,91,72,0.00,40.00,11,7,21,0.00
2013-6-27,71.0,59.2,48.0,52.0,49.0,45.0,99,73,41,0.00,40.00,13,6,23,0.00
2013-6-28,80.0,69.7,55.0,54.0,49.3,42.0,87,51,28,0.00,40.00,10,4,17,0.00
2013-6-29,75.0,66.6,60.0,55.0,51.3,45.0,72,59,35,0.00,40.00,10,4,15,0.00
2013-6-30,86.0,72.6,57.0,53.0,49.2,41.0,79,47,22,0.00,40.00,12,6,24,0.00
2013-7-1,86.0,76.1,65.0,55.0,50.9,42.0,70,43,24,0.00,40.00,10,4,21,0.00
2013-7-2,87.0,79.9,68.0,54.0,44.7,34.0,54,30,16,0.00,40.00,11,6,19,0.00
2013-7-3,82.0,72.7,63.0,49.0,42.1,31.0,50,34,22,0.00,40.00,14,7,22,0.00
2013-7-4,70.0,63.8,53.0,42.0,36.0,27.0,55,36,26,0.00,40.00,12,6,19,0.00
2013-7-5,67.0,57.8,49.0,43.0,37.1,27.0,74,48,25,0.00,40.00,11,5,19,0.00
2013-7-6,71.0,60.1,48.0,43.0,34.2,27.0,75,42,22,0.00,40.00,12,5,17,0.00
2013-7-7,76.0,64.9,53.0,40.0,35.0,23.0,52,34,15,0.00,40.00,12,5,20,0.00
2013-7-8,74.0,62.6,51.0,38.0,31.4,-99.9,53,33,21,0.00,40.00,9,4,14,0.00
2013-7-9,82.0,71.5,58.0,48.0,38.7,28.0,56,33,15,0.00,40.00,10,5,16,0.00
2013-7-10,78.0,68.1,62.0,46.0,33.6,-99.9,57,30,21,0.00,40.00,17,9,31,0.00
2013-7-11,71.0,60.0,50.0,39.0,33.1,22.0,60,38,19,0.00,40.00,12,4,23,0.00
2013-7-12,65.0,54.3,46.0,41.0,32.3,8.0,78,48,11,0.00,40.00,15,6,22,0.00
2013-7-13,67.0,55.6,41.0,33.0,28.2,19.0,75,38,21,0.00,40.00,12,5,18,0.00
2013-7-14,77.0,65.0,51.0,41.0,30.8,17.0,42,28,20,0.00,40.00,10,5,18,0.00
2013-7-15,76.0,69.9,57.0,42.0,35.2,28.0,47,29,18,0.00,40.00,14,7,21,0.00
2013-7-17,76.0,67.9,58.0,41.0,32.2,25.0,41,28,15,0.00,40.00,10,5,16,0.00
2013-7-18,82.0,72.7,60.0,42.0,32.4,19.0,43,24,10,0.00,40.00,10,5,17,0.00
2013-7-19,80.0,71.3,60.0,41.0,31.1,24.0,38,24,15,0.00,40.00,12,7,19,0.00
2013-7-20,81.0,72.4,62.0,39.0,31.3,-99.9,35,23,14,0.00,40.00,11,5,18,0.00
2013-7-21,84.0,78.2,58.0,39.0,16.2,5.0,48,12,5,0.00,40.00,10,7,19,0.00
2013-7-22,81.0,73.8,60.0,44.0,32.8,25.0,43,24,13,0.00,40.00,11,5,18,0.00
2013-7-23,86.0,78.9,71.0,43.0,32.1,14.0,30,19,10,0.00,40.00,12,6,18,0.00
2013-7-24,80.0,71.3,61.0,40.0,31.8,14.0,34,24,12,0.00,40.00,12,4,19,0.00
2013-7-25,85.0,77.9,67.0,40.0,36.0,26.0,36,23,14,0.00,40.00,12,6,19,0.00
2013-7-26,82.0,74.3,63.0,41.0,37.1,29.0,37,26,17,0.00,40.00,11,5,22,0.00
2013-7-27,76.0,68.7,60.0,36.0,29.1,15.0,40,24,10,0.00,40.00,9,4,17,0.00
2013-7-28,71.0,62.3,47.0,37.0,29.6,22.0,45,30,21,0.00,40.00,10,3,18,0.00
2013-7-29,73.0,62.5,50.0,38.0,32.6,22.0,60,35,16,0.00,40.00,12,4,19,0.00
2013-7-30,75.0,67.3,55.0,38.0,27.0,15.0,41,24,12,0.00,40.00,10,4,16,0.00
2013-7-31,70.0,60.2,49.0,46.0,38.8,31.0,74,48,24,0.00,40.00,12,4,22,0.00
2013-8-1,63.0,52.9,44.0,50.0,39.4,29.0,92,61,45,0.00,40.00,9,4,14,0.00
2013-8-2,62.0,51.2,41.0,43.0,38.8,33.0,89,64,35,0.00,40.00,9,3,16,0.00
2013-8-3,72.0,62.0,50.0,41.0,32.8,21.0,68,36,16,0.00,40.00,10,5,17,0.00
2013-8-4,77.0,67.9,53.0,41.0,34.7,26.0,59,31,16,0.00,40.00,11,5,18,0.00
2013-8-5,76.0,68.0,58.0,48.0,38.4,30.0,54,35,19,0.00,40.00,12,-9,19,0.00
2013-8-6,79.0,69.9,56.0,41.0,36.1,30.0,57,30,19,0.00,40.00,10,4,17,0.00
2013-8-7,73.0,64.3,56.0,43.0,36.9,28.0,52,37,24,0.00,40.00,17,5,31,0.00
2013-8-8,72.0,63.4,55.0,47.0,38.0,35.0,65,40,27,0.00,40.00,8,3,14,0.00
2013-8-9,69.0,58.0,50.0,49.0,44.1,39.0,91,61,37,0.00,40.00,12,4,21,0.00
2013-8-10,64.0,57.0,50.0,47.0,42.5,38.0,74,59,45,0.00,40.00,12,4,19,0.00
2013-8-11,67.0,55.5,45.0,45.0,40.3,36.0,81,59,34,0.00,40.00,13,5,21,0.00
2013-8-12,73.0,61.2,51.0,47.0,41.5,35.0,82,51,26,0.00,40.00,11,4,17,0.00
2013-8-13,74.0,62.4,54.0,42.0,26.8,-99.9,61,35,23,0.00,40.00,10,5,16,0.00
2013-8-14,75.0,63.9,57.0,46.0,35.0,-99.9,60,39,24,0.00,40.00,9,5,17,0.00
2013-8-15,75.0,51.8,54.0,48.0,13.9,-99.9,63,39,25,0.00,40.00,12,6,19,0.00
2013-8-16,72.0,60.6,55.0,51.0,41.5,-99.9,77,58,42,0.00,40.00,10,4,18,0.00
2013-8-17,73.0,61.0,52.0,51.0,43.9,-99.9,93,59,35,0.00,40.00,10,4,19,0.00
2013-8-18,78.0,67.3,53.0,45.0,39.6,32.0,73,39,19,0.00,40.00,9,4,14,0.00
2013-8-19,78.0,61.3,57.0,47.0,23.8,-99.9,66,34,13,0.00,40.00,11,4,17,0.00
2013-8-20,72.0,64.1,52.0,47.0,28.3,-99.9,73,31,14,0.00,40.00,11,7,18,0.00
2013-8-21,73.0,65.2,57.0,38.0,31.5,25.0,36,28,22,0.00,40.00,10,5,16,0.00
2013-8-22,70.0,60.0,48.0,52.0,43.3,29.0,96,58,28,0.00,40.00,16,5,23,0.00
2013-8-23,67.0,57.1,49.0,48.0,44.2,38.0,93,64,39,0.00,40.00,11,6,22,0.00
2013-8-24,68.0,56.1,47.0,48.0,40.1,-99.9,92,59,36,0.00,40.00,12,4,25,0.00
2013-8-25,61.0,51.8,44.0,47.0,44.6,42.0,95,77,55,0.00,40.00,18,5,40,0.00
2013-8-26,62.0,51.5,43.0,46.0,43.1,38.0,99,76,44,0.00,40.00,16,7,24,0.00
2013-8-27,64.0,52.9,47.0,43.0,40.8,37.0,82,65,42,0.00,40.00,11,4,19,0.00
2013-8-28,71.0,64.5,57.0,47.0,41.8,37.0,67,45,30,0.00,40.00,12,6,21,0.00
2013-8-29,67.0,58.4,53.0,50.0,46.0,42.0,86,65,41,0.00,40.00,16,8,30,0.00
2013-8-30,72.0,58.7,48.0,49.0,44.6,37.0,87,63,29,0.00,40.00,10,5,20,0.00
2013-8-31,79.0,65.8,51.0,49.0,39.5,-99.9,89,43,15,0.00,40.00,10,6,18,0.00
2013-9-1,78.0,65.2,54.0,48.0,40.1,25.0,71,44,16,0.00,40.00,13,5,26,0.00
2013-9-2,71.0,59.6,51.0,48.0,43.2,28.0,82,58,21,0.00,40.00,12,4,21,0.00
2013-9-3,70.0,57.0,49.0,49.0,43.5,29.0,96,66,22,0.00,40.00,12,5,22,0.00
2013-9-4,72.0,59.1,50.0,46.0,40.0,23.0,83,54,18,0.00,40.00,12,6,21,0.00
2013-9-5,61.0,51.1,43.0,47.0,42.2,37.0,93,72,44,0.00,40.00,18,7,29,0.00
2013-9-6,61.0,48.7,42.0,47.0,43.0,40.0,96,82,57,0.00,40.00,16,6,29,0.00
2013-9-7,72.0,57.8,46.0,47.0,41.1,-99.9,90,59,26,0.00,40.00,11,5,15,0.00
2013-9-8,65.0,57.1,50.0,48.0,44.9,40.0,86,65,45,0.00,40.00,13,6,20,0.00
2013-9-9,70.0,63.3,53.0,42.0,37.7,28.0,63,40,22,0.00,40.00,11,5,18,0.00
2013-9-10,73.0,64.4,55.0,41.0,38.7,35.0,53,40,27,0.00,40.00,12,6,18,0.00
2013-9-11,76.0,69.9,61.0,41.0,37.8,32.0,44,32,22,0.00,40.00,12,6,17,0.00
2013-9-12,77.0,71.4,62.0,42.0,37.6,33.0,42,30,21,0.00,40.00,13,6,20,0.00
2013-9-13,76.0,69.2,63.0,47.0,36.3,25.0,55,32,17,0.00,40.00,9,4,19,0.00
2013-9-14,76.0,67.5,60.0,46.0,39.4,-99.9,58,38,26,0.00,40.00,11,5,17,0.00
2013-9-15,74.0,61.5,50.0,47.0,39.7,24.0,72,48,16,0.00,40.00,15,7,27,0.00
2013-9-16,63.0,50.5,44.0,43.0,39.5,34.0,87,67,34,0.00,40.00,14,6,23,0.00
2013-9-17,46.0,42.9,38.0,41.0,38.0,34.0,93,83,70,0.00,40.00,14,4,29,0.00
2013-9-18,45.0,39.9,37.0,35.0,32.8,30.0,90,76,57,0.00,40.00,11,5,22,0.00
2013-9-19,68.0,55.4,43.0,30.0,26.8,21.0,59,36,17,0.00,40.00,12,5,19,0.00
2013-9-20,63.0,52.6,41.0,41.0,32.6,25.0,92,50,27,0.00,40.00,17,9,29,0.00
2013-9-21,47.0,40.8,36.0,40.0,34.8,-99.9,98,82,67,0.00,40.00,16,6,30,0.00
2013-9-22,43.0,39.5,37.0,42.0,37.5,33.0,98,92,77,0.00,40.00,29,14,48,0.00
2013-9-23,48.0,41.7,38.0,42.0,37.5,33.0,94,85,74,0.00,40.00,24,11,49,0.00
2013-9-24,41.0,36.7,32.0,38.0,34.4,30.0,97,91,77,0.00,40.00,13,7,24,0.00
2013-9-25,43.0,34.3,30.0,32.0,27.8,25.0,91,78,47,0.00,40.00,14,4,24,0.00
2013-9-26,43.0,35.5,30.0,32.0,26.6,23.0,89,71,53,0.00,40.00,10,3,14,0.00
2013-10-2,39.0,31.9,28.0,30.0,23.8,20.0,94,73,53,0.00,40.00,12,5,16,0.00
2013-10-3,39.0,32.8,26.0,29.0,24.4,20.0,86,72,60,0.00,40.00,14,6,19,0.00
2013-10-4,47.0,36.4,30.0,28.0,22.6,14.0,89,61,27,0.00,40.00,6,4,11,0.00
2013-10-5,63.0,47.0,38.0,22.0,17.7,7.0,51,33,15,0.00,40.00,12,10,19,0.00
2013-10-6,64.0,54.5,46.0,30.0,24.4,18.0,44,31,23,0.00,40.00,12,8,19,0.00
2013-10-7,45.0,39.0,32.0,36.0,24.6,14.0,95,62,31,0.00,40.00,15,9,24,0.00
2013-10-8,39.0,32.9,28.0,33.0,28.9,24.0,98,85,61,0.00,40.00,9,4,17,0.00
2013-10-9,34.0,29.7,28.0,31.0,27.6,24.0,98,92,65,0.00,40.00,18,10,29,0.00
2013-10-10,46.0,39.7,33.0,32.0,27.9,17.0,82,63,41,0.00,40.00,6,3,13,0.00
2013-10-11,44.0,36.3,31.0,34.0,28.9,20.0,87,75,47,0.00,40.00,8,3,11,0.00
2013-10-12,36.0,31.9,31.0,33.0,23.9,-99.9,98,81,45,0.00,40.00,10,5,16,0.00
2013-10-13,38.0,32.4,30.0,30.0,29.1,28.0,98,88,70,0.00,40.00,11,8,20,0.00
2013-10-21,60.0,55.0,50.0,32.0,30.4,28.0,47,39,31,0.00,40.00,8,6,13,0.00
2013-10-22,62.0,57.4,48.0,35.0,31.4,24.0,45,37,25,0.00,40.00,5,3,9,0.00
2013-10-23,61.0,58.0,56.0,37.0,34.0,25.0,48,41,25,0.00,40.00,7,3,14,0.00
2013-10-24,60.0,57.0,55.0,36.0,34.2,31.0,48,42,33,0.00,40.00,4,2,6,0.00
2013-10-25,62.0,59.2,52.0,28.0,26.8,26.0,37,29,26,0.00,40.00,4,3,9,0.00
2013-10-26,63.0,52.8,48.0,27.0,14.2,-99.9,37,25,18,0.00,40.00,9,6,13,0.00
2013-10-27,44.0,33.1,30.0,31.0,27.9,12.0,97,85,27,0.00,40.00,20,9,41,0.00
2013-10-28,31.0,24.3,22.0,31.0,19.4,-99.9,98,94,88,0.00,40.00,19,13,32,0.00
2013-10-29,37.0,27.3,22.0,26.0,20.3,15.0,87,75,62,0.00,40.00,12,6,23,0.00
2013-10-30,49.0,38.4,32.0,29.0,23.3,18.0,67,55,37,0.00,40.00,9,3,12,0.00
2013-10-31,46.0,42.2,39.0,42.0,38.8,34.0,98,88,79,0.00,40.00,12,6,21,0.00
2013-11-1,49.0,40.4,35.0,39.0,34.0,25.0,91,78,58,0.00,40.00,12,5,17,0.00
2013-11-2,42.0,30.7,24.0,38.0,24.2,-99.9,98,83,69,0.00,40.00,22,12,35,0.00
2013-11-3,28.0,25.6,24.0,24.0,21.4,16.0,93,84,66,0.00,40.00,17,7,34,0.00
2013-11-4,35.0,29.3,26.0,29.0,25.0,21.0,97,84,65,0.00,40.00,12,6,19,0.00
2013-11-5,38.0,34.6,30.0,36.0,33.8,29.0,99,97,94,0.00,40.00,12,8,21,0.00
2013-11-6,43.0,39.4,36.0,41.0,38.9,36.0,99,98,91,0.00,40.00,12,6,17,0.00
2013-11-7,41.0,34.7,27.0,40.0,32.5,24.0,99,92,80,0.00,40.00,27,12,45,0.00
2013-11-8,35.0,30.5,26.0,29.0,25.4,21.0,94,82,63,0.00,40.00,14,4,25,0.00
2013-11-9,46.0,35.8,29.0,38.0,23.1,-99.9,80,66,50,0.00,40.00,12,6,18,0.00
2013-11-10,52.0,44.6,38.0,37.0,32.6,28.0,86,64,46,0.00,40.00,9,4,13,0.00
2013-11-11,48.0,42.6,39.0,28.0,22.4,16.0,56,46,30,0.00,40.00,9,5,13,0.00
2013-11-12,45.0,42.8,41.0,42.0,31.4,16.0,95,68,32,0.00,40.00,14,9,29,0.00
2013-11-13,51.0,41.8,35.0,34.0,24.3,11.0,78,52,31,0.00,40.00,11,5,19,0.00
2013-11-14,41.0,33.3,26.0,24.0,17.4,7.0,79,55,24,0.00,40.00,9,3,15,0.00
2013-11-15,34.0,27.3,24.0,24.0,18.6,14.0,89,70,48,0.00,40.00,22,6,48,0.00
2013-11-16,30.0,27.3,26.0,26.0,20.2,-99.9,91,82,78,0.00,40.00,29,18,48,0.00
2013-11-17,35.0,29.0,26.0,30.0,25.8,23.0,95,88,70,0.00,40.00,16,9,29,0.00
2013-11-19,36.0,32.7,31.0,35.0,32.4,30.0,99,99,98,0.00,40.00,13,-14,24,0.00
2013-11-20,32.0,20.8,14.0,32.0,14.0,-8.0,99,77,36,0.00,40.00,12,5,22,0.00
2013-11-21,30.0,22.2,13.0,-6.0,-9.9,-15.0,37,24,16,0.00,40.00,12,7,21,0.00
2013-11-22,37.0,33.1,30.0,2.0,-0.2,-3.0,28,24,17,0.00,40.00,7,4,14,0.00
2013-11-23,48.0,36.9,33.0,16.0,5.1,-99.9,43,30,21,0.00,40.00,8,4,10,0.00
2013-11-24,55.0,45.2,32.0,13.0,7.8,3.0,32,22,14,0.00,40.00,9,5,12,0.00
2013-11-25,52.0,48.4,43.0,11.0,8.8,6.0,23,20,16,0.00,40.00,8,5,11,0.00
2013-11-26,45.0,40.0,36.0,19.0,13.8,7.0,43,34,23,0.00,40.00,8,3,13,0.00
2013-11-27,46.0,40.3,35.0,19.0,18.1,16.0,51,40,32,0.00,40.00,7,5,11,0.00
2013-11-28,51.0,43.1,38.0,22.0,19.3,16.0,47,39,29,0.00,40.00,6,2,8,0.00
2013-11-29,49.0,41.4,36.0,34.0,21.8,14.0,87,48,25,0.00,40.00,6,2,11,0.00
2013-11-30,42.0,36.6,36.0,35.0,27.2,-99.9,88,75,70,0.00,40.00,12,6,24,0.00
2013-12-1,41.0,37.6,34.0,39.0,35.5,28.0,99,92,76,0.00,40.00,32,19,60,0.00
2013-12-2,35.0,25.8,16.0,35.0,24.7,13.0,99,95,89,0.00,40.00,24,15,42,0.00
2013-12-3,16.0,11.1,4.0,14.0,7.6,0.0,89,85,81,0.00,40.00,16,7,27,0.00
2013-12-4,10.0,6.2,3.0,3.0,-0.8,-8.0,81,72,46,0.00,40.00,12,8,20,0.00
2013-12-5,19.0,11.0,5.0,10.0,2.3,-7.0,85,68,34,0.00,40.00,8,3,9,0.00
2013-12-6,11.0,4.9,-2.0,7.0,-0.0,-8.0,84,80,73,0.00,40.00,13,4,21,0.00
2013-12-7,3.0,-1.2,-5.0,-4.0,-11.5,-99.9,77,69,59,0.00,40.00,12,6,25,0.00
2013-12-8,18.0,13.0,2.0,6.0,-2.9,-20.0,69,50,22,0.00,40.00,7,3,9,0.00
2013-12-9,34.0,23.0,13.0,23.0,11.0,-2.0,77,60,44,0.00,40.00,10,6,14,0.00
2013-12-10,36.0,31.2,26.0,25.0,22.0,16.0,85,69,55,0.00,40.00,8,2,13,0.00
2013-12-11,35.0,29.6,26.0,26.0,22.1,19.0,81,73,66,0.00,40.00,11,8,17,0.00
2013-12-12,38.0,29.5,24.0,27.0,21.1,14.0,96,73,44,0.00,40.00,17,7,29,0.00
2013-12-13,39.0,32.4,28.0,32.0,28.7,26.0,95,86,71,0.00,40.00,11,6,16,0.00
2013-12-14,41.0,30.2,31.0,28.0,8.7,-99.9,88,58,7,0.00,40.00,9,8,12,0.00
2013-12-15,44.0,42.8,40.0,36.0,32.8,28.0,74,68,57,0.00,40.00,14,11,21,0.00
2013-12-16,55.0,49.2,37.0,19.0,15.6,12.0,45,27,18,0.00,40.00,3,2,6,0.00
2013-12-17,55.0,46.1,40.0,20.0,14.3,7.0,45,29,18,0.00,40.00,11,7,19,0.00
2013-12-18,39.0,31.8,22.0,29.0,22.9,10.0,93,71,29,0.00,40.00,9,4,19,0.00
2013-12-19,22.0,18.2,13.0,17.0,8.1,-6.0,89,68,30,0.00,40.00,12,6,21,0.00
2013-12-20,35.0,32.4,31.0,34.0,30.8,25.0,96,93,68,0.00,40.00,21,11,39,0.00
2013-12-21,41.0,33.3,31.0,31.0,24.1,-99.9,94,76,60,0.00,40.00,6,2,11,0.00
2013-12-22,45.0,40.2,34.0,33.0,29.5,23.0,80,67,42,0.00,40.00,9,4,19,0.00
2013-12-23,40.0,36.8,30.0,35.0,27.2,6.0,95,72,24,0.00,40.00,26,14,50,0.00
2013-12-24,32.0,29.5,27.0,25.0,20.0,15.0,90,70,50,0.00,40.00,7,6,9,0.00
2013-12-25,51.0,48.5,46.0,12.0,9.5,7.0,20,20,20,0.00,40.00,4,4,8,0.00
2013-12-26,55.0,47.5,41.0,27.0,19.6,9.0,45,34,20,0.00,40.00,12,8,21,0.00
2013-12-27,45.0,39.6,34.0,20.0,16.3,11.0,55,39,30,0.00,40.00,8,6,19,0.00
2013-12-28,38.0,31.8,31.0,10.0,-1.0,-99.9,40,29,22,0.00,40.00,4,2,8,0.00
2013-12-29,46.0,41.6,31.0,32.0,19.4,-1.0,70,43,20,0.00,40.00,6,3,9,0.00
2013-12-30,41.0,38.4,35.0,31.0,21.8,10.0,68,53,31,0.00,40.00,14,8,23,0.00
2013-12-31,41.0,38.3,34.0,30.0,23.6,11.0,82,58,30,0.00,40.00,16,5,22,0.00
2014-1-1,48.0,38.5,33.0,29.0,20.1,9.0,83,49,23,0.00,40.00,6,3,10,0.00
2014-1-2,51.0,43.5,38.0,31.0,26.0,15.0,59,50,35,0.00,40.00,17,7,29,0.00